sensor_id;sensor_type;location;lat;lon;timestamp;temperature;humidity
27384;DHT22;14851;51.166;4.760;2023-05-27T00:01:30;13.00;99.90
27384;DHT22;14851;51.166;4.760;2023-05-27T00:03:56;12.90;99.90
27384;DHT22;14851;51.166;4.760;2023-05-27T00:06:22;12.90;99.90
27384;DHT22;14851;51.166;4.760;2023-05-27T00:08:48;12.80;99.90
27384;DHT22;14851;51.166;4.760;2023-05-27T00:11:14;12.80;99.90
27384;DHT22;14851;51.166;4.760;2023-05-27T00:13:40;12.80;99.90
27384;DHT22;14851;51.166;4.760;2023-05-27T00:16:06;12.80;99.90
27384;DHT22;14851;51.166;4.760;2023-05-27T00:18:32;12.80;99.90
27384;DHT22;14851;51.166;4.760;2023-05-27T00:21:01;12.70;99.90
27384;DHT22;14851;51.166;4.760;2023-05-27T00:23:27;12.70;99.90
27384;DHT22;14851;51.166;4.760;2023-05-27T00:25:53;12.60;99.90
27384;DHT22;14851;51.166;4.760;2023-05-27T00:28:19;12.60;99.90
27384;DHT22;14851;51.166;4.760;2023-05-27T00:30:47;12.50;99.90
27384;DHT22;14851;51.166;4.760;2023-05-27T00:33:13;12.50;99.90
27384;DHT22;14851;51.166;4.760;2023-05-27T00:35:39;12.40;99.90
27384;DHT22;14851;51.166;4.760;2023-05-27T00:38:05;12.40;99.90
27384;DHT22;14851;51.166;4.760;2023-05-27T00:40:34;12.40;99.90
27384;DHT22;14851;51.166;4.760;2023-05-27T00:43:01;12.30;99.90
27384;DHT22;14851;51.166;4.760;2023-05-27T00:45:27;12.30;99.90
27384;DHT22;14851;51.166;4.760;2023-05-27T00:47:53;12.20;99.90
27384;DHT22;14851;51.166;4.760;2023-05-27T00:50:20;12.20;99.90
27384;DHT22;14851;51.166;4.760;2023-05-27T00:52:48;12.20;99.90
27384;DHT22;14851;51.166;4.760;2023-05-27T00:55:14;12.20;99.90
27384;DHT22;14851;51.166;4.760;2023-05-27T00:57:42;12.10;99.90
27384;DHT22;14851;51.166;4.760;2023-05-27T01:00:10;12.10;99.90
27384;DHT22;14851;51.166;4.760;2023-05-27T01:02:37;12.00;99.90
27384;DHT22;14851;51.166;4.760;2023-05-27T01:05:07;12.00;99.90
27384;DHT22;14851;51.166;4.760;2023-05-27T01:08:13;12.00;99.90
27384;DHT22;14851;51.166;4.760;2023-05-27T01:10:51;12.00;99.90
27384;DHT22;14851;51.166;4.760;2023-05-27T01:13:46;11.90;99.90
27384;DHT22;14851;51.166;4.760;2023-05-27T01:16:17;11.90;99.90
27384;DHT22;14851;51.166;4.760;2023-05-27T01:18:48;11.80;99.90
27384;DHT22;14851;51.166;4.760;2023-05-27T01:21:18;11.80;99.90
27384;DHT22;14851;51.166;4.760;2023-05-27T01:23:48;11.70;99.90
27384;DHT22;14851;51.166;4.760;2023-05-27T01:26:15;11.70;99.90
27384;DHT22;14851;51.166;4.760;2023-05-27T01:28:41;11.70;99.90
27384;DHT22;14851;51.166;4.760;2023-05-27T01:31:21;11.60;99.90
27384;DHT22;14851;51.166;4.760;2023-05-27T01:34:02;11.60;99.90
27384;DHT22;14851;51.166;4.760;2023-05-27T01:36:32;11.60;99.90
27384;DHT22;14851;51.166;4.760;2023-05-27T01:39:00;11.50;99.90
27384;DHT22;14851;51.166;4.760;2023-05-27T01:41:28;11.50;99.90
27384;DHT22;14851;51.166;4.760;2023-05-27T01:43:54;11.50;99.90
27384;DHT22;14851;51.166;4.760;2023-05-27T01:46:20;11.40;99.90
27384;DHT22;14851;51.166;4.760;2023-05-27T01:48:46;11.40;99.90
27384;DHT22;14851;51.166;4.760;2023-05-27T01:51:12;11.30;99.90
27384;DHT22;14851;51.166;4.760;2023-05-27T01:53:39;11.30;99.90
27384;DHT22;14851;51.166;4.760;2023-05-27T01:56:05;11.30;99.90
27384;DHT22;14851;51.166;4.760;2023-05-27T01:58:32;11.20;99.90
27384;DHT22;14851;51.166;4.760;2023-05-27T02:00:59;11.20;99.90
27384;DHT22;14851;51.166;4.760;2023-05-27T02:03:26;11.20;99.90
27384;DHT22;14851;51.166;4.760;2023-05-27T02:05:52;11.10;99.90
27384;DHT22;14851;51.166;4.760;2023-05-27T02:08:19;11.10;99.90
27384;DHT22;14851;51.166;4.760;2023-05-27T02:10:45;11.10;99.90
27384;DHT22;14851;51.166;4.760;2023-05-27T02:13:12;11.00;99.90
27384;DHT22;14851;51.166;4.760;2023-05-27T02:15:39;11.00;99.90
27384;DHT22;14851;51.166;4.760;2023-05-27T02:18:06;10.90;99.90
27384;DHT22;14851;51.166;4.760;2023-05-27T02:20:32;10.90;99.90
27384;DHT22;14851;51.166;4.760;2023-05-27T02:22:58;10.90;99.90
27384;DHT22;14851;51.166;4.760;2023-05-27T02:25:24;10.80;99.90
27384;DHT22;14851;51.166;4.760;2023-05-27T02:27:52;10.80;99.90
27384;DHT22;14851;51.166;4.760;2023-05-27T02:30:20;10.80;99.90
27384;DHT22;14851;51.166;4.760;2023-05-27T02:32:47;10.70;99.90
27384;DHT22;14851;51.166;4.760;2023-05-27T02:35:13;10.70;99.90
27384;DHT22;14851;51.166;4.760;2023-05-27T02:37:44;10.70;99.90
27384;DHT22;14851;51.166;4.760;2023-05-27T02:40:10;10.70;99.90
27384;DHT22;14851;51.166;4.760;2023-05-27T02:42:36;10.60;99.90
27384;DHT22;14851;51.166;4.760;2023-05-27T02:45:04;10.50;99.90
27384;DHT22;14851;51.166;4.760;2023-05-27T02:47:37;10.50;99.90
27384;DHT22;14851;51.166;4.760;2023-05-27T02:50:04;10.50;99.90
27384;DHT22;14851;51.166;4.760;2023-05-27T02:52:30;10.50;99.90
27384;DHT22;14851;51.166;4.760;2023-05-27T02:54:58;10.40;99.90
27384;DHT22;14851;51.166;4.760;2023-05-27T02:57:25;10.40;99.90
27384;DHT22;14851;51.166;4.760;2023-05-27T02:59:51;10.40;99.90
27384;DHT22;14851;51.166;4.760;2023-05-27T03:02:17;10.40;99.90
27384;DHT22;14851;51.166;4.760;2023-05-27T03:04:43;10.40;99.90
27384;DHT22;14851;51.166;4.760;2023-05-27T03:07:12;10.30;99.90
27384;DHT22;14851;51.166;4.760;2023-05-27T03:09:38;10.30;99.90
27384;DHT22;14851;51.166;4.760;2023-05-27T03:12:04;10.20;99.90
27384;DHT22;14851;51.166;4.760;2023-05-27T03:14:31;10.20;99.90
27384;DHT22;14851;51.166;4.760;2023-05-27T03:16:57;10.20;99.90
27384;DHT22;14851;51.166;4.760;2023-05-27T03:19:26;10.20;99.90
27384;DHT22;14851;51.166;4.760;2023-05-27T03:21:53;10.10;99.90
27384;DHT22;14851;51.166;4.760;2023-05-27T03:24:19;10.10;99.90
27384;DHT22;14851;51.166;4.760;2023-05-27T03:26:49;10.10;99.90
27384;DHT22;14851;51.166;4.760;2023-05-27T03:29:16;10.10;99.90
27384;DHT22;14851;51.166;4.760;2023-05-27T03:31:42;10.10;99.90
27384;DHT22;14851;51.166;4.760;2023-05-27T03:34:12;10.00;99.90
27384;DHT22;14851;51.166;4.760;2023-05-27T03:36:40;10.00;99.90
27384;DHT22;14851;51.166;4.760;2023-05-27T03:39:09;10.00;99.90
27384;DHT22;14851;51.166;4.760;2023-05-27T03:41:39;9.90;99.90
27384;DHT22;14851;51.166;4.760;2023-05-27T03:44:05;9.90;99.90
27384;DHT22;14851;51.166;4.760;2023-05-27T03:46:33;9.90;99.90
27384;DHT22;14851;51.166;4.760;2023-05-27T03:48:59;9.90;99.90
27384;DHT22;14851;51.166;4.760;2023-05-27T03:51:25;9.80;99.90
27384;DHT22;14851;51.166;4.760;2023-05-27T03:53:52;9.80;99.90
27384;DHT22;14851;51.166;4.760;2023-05-27T03:56:18;9.80;99.90
27384;DHT22;14851;51.166;4.760;2023-05-27T03:58:44;9.80;99.90
27384;DHT22;14851;51.166;4.760;2023-05-27T04:01:10;9.80;99.90
27384;DHT22;14851;51.166;4.760;2023-05-27T04:03:37;9.80;99.90
27384;DHT22;14851;51.166;4.760;2023-05-27T04:06:07;9.80;99.90
27384;DHT22;14851;51.166;4.760;2023-05-27T04:08:38;9.80;99.90
27384;DHT22;14851;51.166;4.760;2023-05-27T04:11:10;9.70;99.90
27384;DHT22;14851;51.166;4.760;2023-05-27T04:13:41;9.70;99.90
27384;DHT22;14851;51.166;4.760;2023-05-27T04:16:07;9.70;99.90
27384;DHT22;14851;51.166;4.760;2023-05-27T04:18:35;9.70;99.90
27384;DHT22;14851;51.166;4.760;2023-05-27T04:21:02;9.70;99.90
27384;DHT22;14851;51.166;4.760;2023-05-27T04:23:28;9.70;99.90
27384;DHT22;14851;51.166;4.760;2023-05-27T04:25:55;9.70;99.90
27384;DHT22;14851;51.166;4.760;2023-05-27T04:28:23;9.70;99.90
27384;DHT22;14851;51.166;4.760;2023-05-27T04:30:50;9.70;99.90
27384;DHT22;14851;51.166;4.760;2023-05-27T04:33:37;9.70;99.90
27384;DHT22;14851;51.166;4.760;2023-05-27T04:36:03;9.70;99.90
27384;DHT22;14851;51.166;4.760;2023-05-27T04:38:37;9.70;99.90
27384;DHT22;14851;51.166;4.760;2023-05-27T04:41:07;9.60;99.90
27384;DHT22;14851;51.166;4.760;2023-05-27T04:44:02;9.70;99.90
27384;DHT22;14851;51.166;4.760;2023-05-27T04:46:37;9.70;99.90
27384;DHT22;14851;51.166;4.760;2023-05-27T04:49:05;9.70;99.90
27384;DHT22;14851;51.166;4.760;2023-05-27T04:51:32;9.70;99.90
27384;DHT22;14851;51.166;4.760;2023-05-27T04:54:01;9.70;99.90
27384;DHT22;14851;51.166;4.760;2023-05-27T04:56:28;9.80;99.90
27384;DHT22;14851;51.166;4.760;2023-05-27T04:58:57;9.80;99.90
27384;DHT22;14851;51.166;4.760;2023-05-27T05:01:30;9.80;99.90
27384;DHT22;14851;51.166;4.760;2023-05-27T05:04:25;9.80;99.90
27384;DHT22;14851;51.166;4.760;2023-05-27T05:07:02;9.80;99.90
27384;DHT22;14851;51.166;4.760;2023-05-27T05:09:33;9.80;99.90
27384;DHT22;14851;51.166;4.760;2023-05-27T05:12:06;9.80;99.90
27384;DHT22;14851;51.166;4.760;2023-05-27T05:14:37;9.80;99.90
27384;DHT22;14851;51.166;4.760;2023-05-27T05:17:05;9.80;99.90
27384;DHT22;14851;51.166;4.760;2023-05-27T05:19:32;9.90;99.90
27384;DHT22;14851;51.166;4.760;2023-05-27T05:22:00;9.90;99.90
27384;DHT22;14851;51.166;4.760;2023-05-27T05:24:28;9.80;99.90
27384;DHT22;14851;51.166;4.760;2023-05-27T05:26:56;9.90;99.90
27384;DHT22;14851;51.166;4.760;2023-05-27T05:29:22;9.90;99.90
27384;DHT22;14851;51.166;4.760;2023-05-27T05:31:54;9.90;99.90
27384;DHT22;14851;51.166;4.760;2023-05-27T05:34:24;9.90;99.90
27384;DHT22;14851;51.166;4.760;2023-05-27T05:36:54;10.00;99.90
27384;DHT22;14851;51.166;4.760;2023-05-27T05:39:20;10.00;99.90
27384;DHT22;14851;51.166;4.760;2023-05-27T05:41:51;10.00;99.90
27384;DHT22;14851;51.166;4.760;2023-05-27T05:44:18;10.00;99.90
27384;DHT22;14851;51.166;4.760;2023-05-27T05:46:44;10.00;99.90
27384;DHT22;14851;51.166;4.760;2023-05-27T05:49:11;10.10;99.90
27384;DHT22;14851;51.166;4.760;2023-05-27T05:51:41;10.10;99.90
27384;DHT22;14851;51.166;4.760;2023-05-27T05:54:10;10.10;99.90
27384;DHT22;14851;51.166;4.760;2023-05-27T05:56:42;10.20;99.90
27384;DHT22;14851;51.166;4.760;2023-05-27T05:59:08;10.20;99.90
27384;DHT22;14851;51.166;4.760;2023-05-27T06:01:34;10.20;99.90
27384;DHT22;14851;51.166;4.760;2023-05-27T06:04:00;10.20;99.90
27384;DHT22;14851;51.166;4.760;2023-05-27T06:06:34;10.20;99.90
27384;DHT22;14851;51.166;4.760;2023-05-27T06:09:18;10.30;99.90
27384;DHT22;14851;51.166;4.760;2023-05-27T06:11:46;10.40;99.90
27384;DHT22;14851;51.166;4.760;2023-05-27T06:14:12;10.30;99.90
27384;DHT22;14851;51.166;4.760;2023-05-27T06:16:38;10.40;99.90
27384;DHT22;14851;51.166;4.760;2023-05-27T06:19:07;10.40;99.90
27384;DHT22;14851;51.166;4.760;2023-05-27T06:21:34;10.50;99.90
27384;DHT22;14851;51.166;4.760;2023-05-27T06:24:21;10.50;99.90
27384;DHT22;14851;51.166;4.760;2023-05-27T06:26:54;10.50;99.90
27384;DHT22;14851;51.166;4.760;2023-05-27T06:29:19;10.60;99.90
27384;DHT22;14851;51.166;4.760;2023-05-27T06:31:47;10.60;99.90
27384;DHT22;14851;51.166;4.760;2023-05-27T06:34:16;10.60;99.90
27384;DHT22;14851;51.166;4.760;2023-05-27T06:36:42;10.60;99.90
27384;DHT22;14851;51.166;4.760;2023-05-27T06:39:08;10.70;99.90
27384;DHT22;14851;51.166;4.760;2023-05-27T06:41:41;10.70;99.90
27384;DHT22;14851;51.166;4.760;2023-05-27T06:44:32;10.80;99.90
27384;DHT22;14851;51.166;4.760;2023-05-27T06:47:03;10.80;99.90
27384;DHT22;14851;51.166;4.760;2023-05-27T06:49:30;10.80;99.90
27384;DHT22;14851;51.166;4.760;2023-05-27T06:51:58;10.90;99.90
27384;DHT22;14851;51.166;4.760;2023-05-27T06:54:26;10.90;99.90
27384;DHT22;14851;51.166;4.760;2023-05-27T06:57:03;11.00;99.90
27384;DHT22;14851;51.166;4.760;2023-05-27T06:59:49;11.00;99.90
27384;DHT22;14851;51.166;4.760;2023-05-27T07:02:15;11.10;99.90
27384;DHT22;14851;51.166;4.760;2023-05-27T07:04:42;11.10;99.90
27384;DHT22;14851;51.166;4.760;2023-05-27T07:07:09;11.20;99.90
27384;DHT22;14851;51.166;4.760;2023-05-27T07:09:35;11.20;99.90
27384;DHT22;14851;51.166;4.760;2023-05-27T07:12:01;11.30;99.90
27384;DHT22;14851;51.166;4.760;2023-05-27T07:14:51;11.30;99.90
27384;DHT22;14851;51.166;4.760;2023-05-27T07:17:22;11.40;99.90
27384;DHT22;14851;51.166;4.760;2023-05-27T07:19:50;11.40;99.90
27384;DHT22;14851;51.166;4.760;2023-05-27T07:22:19;11.50;99.90
27384;DHT22;14851;51.166;4.760;2023-05-27T07:24:45;11.50;99.90
27384;DHT22;14851;51.166;4.760;2023-05-27T07:27:12;11.50;99.90
27384;DHT22;14851;51.166;4.760;2023-05-27T07:29:42;11.60;99.90
27384;DHT22;14851;51.166;4.760;2023-05-27T07:32:27;11.60;99.90
27384;DHT22;14851;51.166;4.760;2023-05-27T07:34:54;11.70;99.90
27384;DHT22;14851;51.166;4.760;2023-05-27T07:37:22;11.80;99.90
27384;DHT22;14851;51.166;4.760;2023-05-27T07:39:49;11.80;99.90
27384;DHT22;14851;51.166;4.760;2023-05-27T07:42:17;11.80;99.90
27384;DHT22;14851;51.166;4.760;2023-05-27T07:44:43;11.90;99.90
27384;DHT22;14851;51.166;4.760;2023-05-27T07:47:09;11.90;99.90
27384;DHT22;14851;51.166;4.760;2023-05-27T07:49:35;12.00;99.90
27384;DHT22;14851;51.166;4.760;2023-05-27T07:52:20;12.10;99.90
27384;DHT22;14851;51.166;4.760;2023-05-27T07:54:45;12.10;99.90
27384;DHT22;14851;51.166;4.760;2023-05-27T07:57:14;12.10;99.90
27384;DHT22;14851;51.166;4.760;2023-05-27T07:59:43;12.20;99.90
27384;DHT22;14851;51.166;4.760;2023-05-27T08:02:09;12.30;99.90
27384;DHT22;14851;51.166;4.760;2023-05-27T08:04:39;12.30;99.90
27384;DHT22;14851;51.166;4.760;2023-05-27T08:07:22;12.40;99.90
27384;DHT22;14851;51.166;4.760;2023-05-27T08:10:07;12.40;99.90
27384;DHT22;14851;51.166;4.760;2023-05-27T08:12:52;12.50;99.90
27384;DHT22;14851;51.166;4.760;2023-05-27T08:15:31;12.40;99.90
27384;DHT22;14851;51.166;4.760;2023-05-27T08:18:04;12.50;99.90
27384;DHT22;14851;51.166;4.760;2023-05-27T08:20:43;12.50;99.90
27384;DHT22;14851;51.166;4.760;2023-05-27T08:23:32;12.50;99.90
27384;DHT22;14851;51.166;4.760;2023-05-27T08:26:16;12.50;99.90
27384;DHT22;14851;51.166;4.760;2023-05-27T08:28:53;12.60;99.90
27384;DHT22;14851;51.166;4.760;2023-05-27T08:31:41;12.70;99.90
27384;DHT22;14851;51.166;4.760;2023-05-27T08:34:08;12.80;99.90
27384;DHT22;14851;51.166;4.760;2023-05-27T08:36:35;12.80;99.90
27384;DHT22;14851;51.166;4.760;2023-05-27T08:39:02;12.90;99.90
27384;DHT22;14851;51.166;4.760;2023-05-27T08:41:34;13.00;99.90
27384;DHT22;14851;51.166;4.760;2023-05-27T08:44:03;13.00;99.90
27384;DHT22;14851;51.166;4.760;2023-05-27T08:46:32;13.00;99.90
27384;DHT22;14851;51.166;4.760;2023-05-27T08:48:58;13.10;99.90
27384;DHT22;14851;51.166;4.760;2023-05-27T08:51:24;13.10;99.90
27384;DHT22;14851;51.166;4.760;2023-05-27T08:53:53;13.30;99.90
27384;DHT22;14851;51.166;4.760;2023-05-27T08:56:20;13.40;99.90
27384;DHT22;14851;51.166;4.760;2023-05-27T08:58:50;13.40;99.90
27384;DHT22;14851;51.166;4.760;2023-05-27T09:01:20;13.50;99.90
27384;DHT22;14851;51.166;4.760;2023-05-27T09:03:47;13.50;99.90
27384;DHT22;14851;51.166;4.760;2023-05-27T09:06:16;13.50;99.90
27384;DHT22;14851;51.166;4.760;2023-05-27T09:08:42;13.60;99.90
27384;DHT22;14851;51.166;4.760;2023-05-27T09:11:25;13.70;99.90
27384;DHT22;14851;51.166;4.760;2023-05-27T09:13:56;13.80;99.90
27384;DHT22;14851;51.166;4.760;2023-05-27T09:16:22;13.80;99.90
27384;DHT22;14851;51.166;4.760;2023-05-27T09:18:49;13.80;99.90
27384;DHT22;14851;51.166;4.760;2023-05-27T09:21:18;13.90;99.90
27384;DHT22;14851;51.166;4.760;2023-05-27T09:23:45;13.90;99.90
27384;DHT22;14851;51.166;4.760;2023-05-27T09:26:12;14.00;99.90
27384;DHT22;14851;51.166;4.760;2023-05-27T09:28:38;14.00;99.90
27384;DHT22;14851;51.166;4.760;2023-05-27T09:31:06;14.10;99.90
27384;DHT22;14851;51.166;4.760;2023-05-27T09:33:35;14.10;99.90
27384;DHT22;14851;51.166;4.760;2023-05-27T09:36:03;14.30;99.90
27384;DHT22;14851;51.166;4.760;2023-05-27T09:38:33;14.30;99.90
27384;DHT22;14851;51.166;4.760;2023-05-27T09:41:00;14.30;99.90
27384;DHT22;14851;51.166;4.760;2023-05-27T09:43:27;14.30;99.90
27384;DHT22;14851;51.166;4.760;2023-05-27T09:46:02;14.40;99.90
27384;DHT22;14851;51.166;4.760;2023-05-27T09:48:32;14.40;99.90
27384;DHT22;14851;51.166;4.760;2023-05-27T09:50:58;14.40;99.90
27384;DHT22;14851;51.166;4.760;2023-05-27T09:53:28;14.50;99.90
27384;DHT22;14851;51.166;4.760;2023-05-27T09:55:59;14.50;99.90
27384;DHT22;14851;51.166;4.760;2023-05-27T09:58:27;14.60;99.90
27384;DHT22;14851;51.166;4.760;2023-05-27T10:00:55;14.70;99.90
27384;DHT22;14851;51.166;4.760;2023-05-27T10:03:22;14.70;99.90
27384;DHT22;14851;51.166;4.760;2023-05-27T10:05:55;14.80;99.90
27384;DHT22;14851;51.166;4.760;2023-05-27T10:08:22;14.80;99.90
27384;DHT22;14851;51.166;4.760;2023-05-27T10:10:47;14.90;99.90
27384;DHT22;14851;51.166;4.760;2023-05-27T10:13:15;14.90;99.90
27384;DHT22;14851;51.166;4.760;2023-05-27T10:15:51;15.00;99.90
27384;DHT22;14851;51.166;4.760;2023-05-27T10:18:27;15.10;99.90
27384;DHT22;14851;51.166;4.760;2023-05-27T10:20:57;15.10;99.90
27384;DHT22;14851;51.166;4.760;2023-05-27T10:23:28;15.20;99.90
27384;DHT22;14851;51.166;4.760;2023-05-27T10:25:55;15.30;99.90
27384;DHT22;14851;51.166;4.760;2023-05-27T10:28:32;15.30;99.90
27384;DHT22;14851;51.166;4.760;2023-05-27T10:31:10;15.40;99.90
27384;DHT22;14851;51.166;4.760;2023-05-27T10:33:37;15.50;99.90
27384;DHT22;14851;51.166;4.760;2023-05-27T10:36:08;15.60;99.90
27384;DHT22;14851;51.166;4.760;2023-05-27T10:38:36;15.60;99.90
27384;DHT22;14851;51.166;4.760;2023-05-27T10:41:03;15.60;99.90
27384;DHT22;14851;51.166;4.760;2023-05-27T10:43:31;15.70;99.90
27384;DHT22;14851;51.166;4.760;2023-05-27T10:46:11;15.70;99.90
27384;DHT22;14851;51.166;4.760;2023-05-27T10:48:37;15.90;99.90
27384;DHT22;14851;51.166;4.760;2023-05-27T10:51:06;15.90;99.90
27384;DHT22;14851;51.166;4.760;2023-05-27T10:53:37;15.90;99.90
27384;DHT22;14851;51.166;4.760;2023-05-27T10:56:06;15.90;99.90
27384;DHT22;14851;51.166;4.760;2023-05-27T10:58:40;16.00;99.90
27384;DHT22;14851;51.166;4.760;2023-05-27T11:01:10;16.10;99.90
27384;DHT22;14851;51.166;4.760;2023-05-27T11:03:44;16.20;99.90
27384;DHT22;14851;51.166;4.760;2023-05-27T11:06:11;16.30;99.90
27384;DHT22;14851;51.166;4.760;2023-05-27T11:08:39;16.30;99.90
27384;DHT22;14851;51.166;4.760;2023-05-27T11:11:09;16.40;99.90
27384;DHT22;14851;51.166;4.760;2023-05-27T11:13:39;16.40;99.90
27384;DHT22;14851;51.166;4.760;2023-05-27T11:16:07;16.40;99.90
27384;DHT22;14851;51.166;4.760;2023-05-27T11:18:46;16.50;99.90
27384;DHT22;14851;51.166;4.760;2023-05-27T11:21:14;16.50;99.90
27384;DHT22;14851;51.166;4.760;2023-05-27T11:23:47;16.60;99.90
27384;DHT22;14851;51.166;4.760;2023-05-27T11:26:21;16.70;99.90
27384;DHT22;14851;51.166;4.760;2023-05-27T11:28:51;16.70;99.90
27384;DHT22;14851;51.166;4.760;2023-05-27T11:31:18;16.70;99.90
27384;DHT22;14851;51.166;4.760;2023-05-27T11:33:50;16.70;99.90
27384;DHT22;14851;51.166;4.760;2023-05-27T11:36:17;16.80;99.90
27384;DHT22;14851;51.166;4.760;2023-05-27T11:38:58;16.90;99.90
27384;DHT22;14851;51.166;4.760;2023-05-27T11:41:26;17.00;99.90
27384;DHT22;14851;51.166;4.760;2023-05-27T11:44:03;17.00;99.90
27384;DHT22;14851;51.166;4.760;2023-05-27T11:46:40;17.10;99.90
27384;DHT22;14851;51.166;4.760;2023-05-27T11:49:08;17.10;99.90
27384;DHT22;14851;51.166;4.760;2023-05-27T11:51:36;17.10;99.90
27384;DHT22;14851;51.166;4.760;2023-05-27T11:54:03;17.20;99.90
27384;DHT22;14851;51.166;4.760;2023-05-27T11:56:32;17.20;99.90
27384;DHT22;14851;51.166;4.760;2023-05-27T11:58:58;17.30;99.90
27384;DHT22;14851;51.166;4.760;2023-05-27T12:01:27;17.30;99.90
27384;DHT22;14851;51.166;4.760;2023-05-27T12:03:55;17.40;99.90
27384;DHT22;14851;51.166;4.760;2023-05-27T12:06:23;17.40;99.90
27384;DHT22;14851;51.166;4.760;2023-05-27T12:08:51;17.40;99.90
27384;DHT22;14851;51.166;4.760;2023-05-27T12:11:17;17.50;99.90
27384;DHT22;14851;51.166;4.760;2023-05-27T12:13:43;17.50;99.90
27384;DHT22;14851;51.166;4.760;2023-05-27T12:16:10;17.60;99.90
27384;DHT22;14851;51.166;4.760;2023-05-27T12:18:35;17.80;99.90
27384;DHT22;14851;51.166;4.760;2023-05-27T12:21:02;17.80;99.90
27384;DHT22;14851;51.166;4.760;2023-05-27T12:23:28;17.80;99.90
27384;DHT22;14851;51.166;4.760;2023-05-27T12:25:54;17.80;99.90
27384;DHT22;14851;51.166;4.760;2023-05-27T12:28:22;17.80;99.90
27384;DHT22;14851;51.166;4.760;2023-05-27T12:30:50;17.90;99.90
27384;DHT22;14851;51.166;4.760;2023-05-27T12:33:15;17.90;99.90
27384;DHT22;14851;51.166;4.760;2023-05-27T12:35:42;18.00;99.90
27384;DHT22;14851;51.166;4.760;2023-05-27T12:38:07;18.20;99.90
27384;DHT22;14851;51.166;4.760;2023-05-27T12:40:37;18.20;99.90
27384;DHT22;14851;51.166;4.760;2023-05-27T12:43:03;18.20;99.90
27384;DHT22;14851;51.166;4.760;2023-05-27T12:45:32;18.20;99.90
27384;DHT22;14851;51.166;4.760;2023-05-27T12:47:58;18.20;99.90
27384;DHT22;14851;51.166;4.760;2023-05-27T12:50:24;18.30;99.90
27384;DHT22;14851;51.166;4.760;2023-05-27T12:52:50;18.30;99.90
27384;DHT22;14851;51.166;4.760;2023-05-27T12:55:18;18.40;99.90
27384;DHT22;14851;51.166;4.760;2023-05-27T12:57:47;18.50;99.90
27384;DHT22;14851;51.166;4.760;2023-05-27T13:00:14;18.60;99.90
27384;DHT22;14851;51.166;4.760;2023-05-27T13:02:40;18.60;99.90
27384;DHT22;14851;51.166;4.760;2023-05-27T13:05:06;18.70;99.90
27384;DHT22;14851;51.166;4.760;2023-05-27T13:07:34;18.70;99.90
27384;DHT22;14851;51.166;4.760;2023-05-27T13:10:02;18.70;99.90
27384;DHT22;14851;51.166;4.760;2023-05-27T13:12:31;18.80;99.90
27384;DHT22;14851;51.166;4.760;2023-05-27T13:14:58;18.80;99.90
27384;DHT22;14851;51.166;4.760;2023-05-27T13:17:30;18.80;99.90
27384;DHT22;14851;51.166;4.760;2023-05-27T13:19:56;19.00;99.90
27384;DHT22;14851;51.166;4.760;2023-05-27T13:22:24;19.00;99.90
27384;DHT22;14851;51.166;4.760;2023-05-27T13:24:52;19.00;99.90
27384;DHT22;14851;51.166;4.760;2023-05-27T13:27:18;19.00;99.90
27384;DHT22;14851;51.166;4.760;2023-05-27T13:29:46;19.10;99.90
27384;DHT22;14851;51.166;4.760;2023-05-27T13:32:12;19.10;99.90
27384;DHT22;14851;51.166;4.760;2023-05-27T13:34:38;19.10;99.90
27384;DHT22;14851;51.166;4.760;2023-05-27T13:37:04;19.20;99.90
27384;DHT22;14851;51.166;4.760;2023-05-27T13:39:30;19.30;99.90
27384;DHT22;14851;51.166;4.760;2023-05-27T13:41:57;19.30;99.90
27384;DHT22;14851;51.166;4.760;2023-05-27T13:44:23;19.50;99.90
27384;DHT22;14851;51.166;4.760;2023-05-27T13:46:49;19.50;99.90
27384;DHT22;14851;51.166;4.760;2023-05-27T13:49:16;19.50;99.90
27384;DHT22;14851;51.166;4.760;2023-05-27T13:51:46;19.70;99.90
27384;DHT22;14851;51.166;4.760;2023-05-27T13:54:13;19.70;99.90
27384;DHT22;14851;51.166;4.760;2023-05-27T13:56:41;19.70;99.90
27384;DHT22;14851;51.166;4.760;2023-05-27T13:59:07;19.70;99.20
27384;DHT22;14851;51.166;4.760;2023-05-27T14:01:35;19.70;98.20
27384;DHT22;14851;51.166;4.760;2023-05-27T14:04:01;19.70;98.60
27384;DHT22;14851;51.166;4.760;2023-05-27T14:06:28;19.80;99.30
27384;DHT22;14851;51.166;4.760;2023-05-27T14:08:55;19.90;98.20
27384;DHT22;14851;51.166;4.760;2023-05-27T14:11:21;19.90;96.80
27384;DHT22;14851;51.166;4.760;2023-05-27T14:13:49;20.00;97.10
27384;DHT22;14851;51.166;4.760;2023-05-27T14:16:16;20.10;97.10
27384;DHT22;14851;51.166;4.760;2023-05-27T14:18:41;20.20;95.60
27384;DHT22;14851;51.166;4.760;2023-05-27T14:21:09;20.20;96.80
27384;DHT22;14851;51.166;4.760;2023-05-27T14:23:35;20.30;98.20
27384;DHT22;14851;51.166;4.760;2023-05-27T14:26:01;20.30;97.40
27384;DHT22;14851;51.166;4.760;2023-05-27T14:28:27;20.40;98.10
27384;DHT22;14851;51.166;4.760;2023-05-27T14:30:53;20.60;98.00
27384;DHT22;14851;51.166;4.760;2023-05-27T14:33:20;20.60;97.40
27384;DHT22;14851;51.166;4.760;2023-05-27T14:35:46;20.70;98.20
27384;DHT22;14851;51.166;4.760;2023-05-27T14:38:15;20.80;96.30
27384;DHT22;14851;51.166;4.760;2023-05-27T14:40:41;20.80;97.70
27384;DHT22;14851;51.166;4.760;2023-05-27T14:43:10;20.90;97.30
27384;DHT22;14851;51.166;4.760;2023-05-27T14:45:37;21.00;97.80
27384;DHT22;14851;51.166;4.760;2023-05-27T14:48:03;21.10;96.90
27384;DHT22;14851;51.166;4.760;2023-05-27T14:50:32;21.20;96.60
27384;DHT22;14851;51.166;4.760;2023-05-27T14:53:01;21.30;96.20
27384;DHT22;14851;51.166;4.760;2023-05-27T14:55:27;21.30;97.20
27384;DHT22;14851;51.166;4.760;2023-05-27T14:57:53;21.40;96.90
27384;DHT22;14851;51.166;4.760;2023-05-27T15:00:19;21.50;96.60
27384;DHT22;14851;51.166;4.760;2023-05-27T15:02:46;21.60;96.00
27384;DHT22;14851;51.166;4.760;2023-05-27T15:05:14;21.70;96.20
27384;DHT22;14851;51.166;4.760;2023-05-27T15:07:43;21.80;96.10
27384;DHT22;14851;51.166;4.760;2023-05-27T15:10:13;21.90;96.40
27384;DHT22;14851;51.166;4.760;2023-05-27T15:12:43;21.90;96.40
27384;DHT22;14851;51.166;4.760;2023-05-27T15:15:17;22.00;96.00
27384;DHT22;14851;51.166;4.760;2023-05-27T15:17:44;22.20;95.20
27384;DHT22;14851;51.166;4.760;2023-05-27T15:20:14;22.20;95.50
27384;DHT22;14851;51.166;4.760;2023-05-27T15:22:43;22.30;95.30
27384;DHT22;14851;51.166;4.760;2023-05-27T15:25:10;22.20;94.00
27384;DHT22;14851;51.166;4.760;2023-05-27T15:27:36;22.20;94.30
27384;DHT22;14851;51.166;4.760;2023-05-27T15:30:04;22.20;93.80
27384;DHT22;14851;51.166;4.760;2023-05-27T15:32:31;22.10;94.20
27384;DHT22;14851;51.166;4.760;2023-05-27T15:35:00;22.10;94.10
27384;DHT22;14851;51.166;4.760;2023-05-27T15:37:29;22.10;93.70
27384;DHT22;14851;51.166;4.760;2023-05-27T15:39:59;22.00;93.70
27384;DHT22;14851;51.166;4.760;2023-05-27T15:42:27;22.00;93.60
27384;DHT22;14851;51.166;4.760;2023-05-27T15:44:52;22.00;92.20